Darstellungsparameter: Aktuell verwendete Einstellungen:
Skalierung der Graphiken ... ?
xyx+y,   Skalierungsfaktor:      Skalierung: Modus: x, Faktor: 1
Darstellungszeitraum ... ?
Vom - - bis: - -   Zeitraum: 30.09.2011 - 30.09.2011
Min/Max/Avg-Anzeige ... ?
Zeige MMA aktuell
Zeige MMA Monat
Zeige MMA alles
Zeige --A aktuell
Zeige --A Monat
Zeige --A alles
Keine MMA-Anzeige
MMA:
Minimum Maximum Average (ber die Originaldaten)
MMA-Basis: 30.09.2011 - 30.09.2011
Quicknavigation für Darstellung... ?
Tage:      1T, 2T, 3T, 5T -1T -2T -3T -5T +1T +2T +3T +5T
Wochen: 1W, 2W, 3W -1W -2W -3W +1W +2W +3W
Monate: 1M, 3M, 6M -1M -3M -6M +1M +3M +6M
Jahre:    1J, 3J, 5J, 10J -1J -3J -5J -10J +1J +3J +5J +10J
Nutze für die Darstellung ... ?
Originaldaten oder Mittelwerte auf ...
Stundenbasis Tagesbasis Wochenbasis
Monatsbasis Jahresbasis      Datenbasis: Original-Daten
Darstellen als:
Statistik (Auto) Statistik J:M      Darstellung:
Zur Graphik,    zurück zur Übersicht aller Sensoren.
 
Tabellarische Datenbersicht: ?
 
Sensor: Nr:Datum:Temp:Abs-Feuchte:Windchill:Wind:
Aussen-T/F 1 30-09-2011 00:11:02 11.5 C 8.88 g/m*3 11.5 C 0 km/h
2 30-09-2011 00:23:02 11.5 C 8.88 g/m*3 11.5 C 0 km/h
3 30-09-2011 00:35:02 11.2 C 8.72 g/m*3 11.2 C 0 km/h
4 30-09-2011 00:47:02 11 C 8.61 g/m*3 11 C 0 km/h
5 30-09-2011 00:59:02 11 C 8.61 g/m*3 11 C 0 km/h
6 30-09-2011 01:11:03 11.1 C 8.76 g/m*3 11.1 C 0 km/h
7 30-09-2011 01:23:03 10.7 C 8.55 g/m*3 10.7 C 0 km/h
8 30-09-2011 01:35:03 10.6 C 8.49 g/m*3 10.6 C 0 km/h
9 30-09-2011 01:47:03 10.6 C 8.49 g/m*3 10.6 C 0 km/h
10 30-09-2011 01:59:03 10.8 C 8.7 g/m*3 10.8 C 0 km/h
11 30-09-2011 02:11:03 10.3 C 8.43 g/m*3 10.3 C 0 km/h
12 30-09-2011 02:23:03 10.1 C 8.32 g/m*3 10.1 C 0 km/h
13 30-09-2011 02:35:03 9.8 C 8.26 g/m*3 9.8 C 0 km/h
14 30-09-2011 02:47:03 9.9 C 8.31 g/m*3 9.9 C 0 km/h
15 30-09-2011 02:59:03 9.7 C 8.2 g/m*3 9.7 C 0 km/h
16 30-09-2011 03:11:03 9.6 C 8.15 g/m*3 9.6 C 0 km/h
17 30-09-2011 03:23:03 9.5 C 8.1 g/m*3 9.5 C 0 km/h
18 30-09-2011 03:35:03 9.6 C 8.15 g/m*3 9.6 C 0 km/h
19 30-09-2011 03:47:03 9.5 C 8.01 g/m*3 9.5 C 0 km/h
20 30-09-2011 03:59:03 9.5 C 8.1 g/m*3 9.5 C 0 km/h
21 30-09-2011 04:11:03 9.3 C 8 g/m*3 9.3 C 0 km/h
22 30-09-2011 04:23:03 9.2 C 7.95 g/m*3 9.2 C 0 km/h
23 30-09-2011 04:35:03 9.3 C 8 g/m*3 9.3 C 0 km/h
24 30-09-2011 04:47:03 9.3 C 7.91 g/m*3 9.3 C 0 km/h
25 30-09-2011 04:59:03 9 C 7.85 g/m*3 9 C 0 km/h
Sensor: Nr:Datum:Temp:Abs-Feuchte:Windchill:Wind:
Aussen-T/F 26 30-09-2011 05:11:03 8.8 C 7.83 g/m*3 8.8 C 0 km/h
27 30-09-2011 05:23:03 9.3 C 8 g/m*3 9.3 C 0 km/h
28 30-09-2011 05:35:04 9 C 7.85 g/m*3 9 C 0 km/h
29 30-09-2011 05:47:04 9.3 C 8.09 g/m*3 9.3 C 0 km/h
30 30-09-2011 05:59:04 9.2 C 8.04 g/m*3 9.2 C 0 km/h
31 30-09-2011 06:11:04 8.7 C 7.87 g/m*3 8.7 C 0 km/h
32 30-09-2011 06:23:04 8.4 C 7.72 g/m*3 8.4 C 0 km/h
33 30-09-2011 06:35:04 8.3 C 7.67 g/m*3 8.3 C 0 km/h
34 30-09-2011 06:47:04 8.6 C 7.82 g/m*3 8.6 C 0 km/h
35 30-09-2011 06:59:04 8.6 C 7.82 g/m*3 8.6 C 0 km/h
36 30-09-2011 07:11:02 8.6 C 7.82 g/m*3 8.6 C 0 km/h
37 30-09-2011 07:23:02 8.9 C 7.97 g/m*3 8.9 C 0 km/h
38 30-09-2011 07:35:02 9 C 7.93 g/m*3 9 C 0 km/h
39 30-09-2011 07:47:02 9.3 C 8.18 g/m*3 9.3 C 0 km/h
40 30-09-2011 07:59:02 9.4 C 8.23 g/m*3 9.4 C 0 km/h
41 30-09-2011 08:11:02 9.5 C 8.28 g/m*3 9.5 C 0 km/h
42 30-09-2011 08:23:03 9.5 C 8.28 g/m*3 9.5 C 0 km/h
43 30-09-2011 08:35:02 9.4 C 8.23 g/m*3 9.4 C 0 km/h
44 30-09-2011 08:47:02 9.1 C 8.07 g/m*3 9.1 C 0 km/h
45 30-09-2011 08:59:02 9.4 C 8.23 g/m*3 9.4 C 0 km/h
46 30-09-2011 09:11:02 9.4 C 8.23 g/m*3 9.4 C 0 km/h
47 30-09-2011 09:23:02 9.3 C 8.18 g/m*3 9.3 C 0 km/h
48 30-09-2011 09:35:01 9.8 C 8.44 g/m*3 9.8 C 0 km/h
49 30-09-2011 09:47:02 10.5 C 8.73 g/m*3 10.5 C 0 km/h
50 30-09-2011 09:59:02 10.5 C 8.73 g/m*3 10.5 C 0 km/h
Sensor: Nr:Datum:Temp:Abs-Feuchte:Windchill:Wind:
Aussen-T/F 51 30-09-2011 10:11:01 10.2 C 8.56 g/m*3 10.2 C 0 km/h
52 30-09-2011 10:23:01 10.1 C 8.42 g/m*3 10.1 C 0 km/h
53 30-09-2011 10:35:02 10.5 C 8.73 g/m*3 10.5 C 0 km/h
54 30-09-2011 10:47:02 11.1 C 9.07 g/m*3 11.1 C 0 km/h
55 30-09-2011 10:59:02 11.6 C 9.35 g/m*3 11.6 C 0 km/h
56 30-09-2011 11:11:02 12.3 C 9.77 g/m*3 12.3 C 0 km/h
57 30-09-2011 11:23:02 12.9 C 10.14 g/m*3 12.9 C 0 km/h
58 30-09-2011 11:35:02 13.5 C 10.41 g/m*3 13.5 C 0 km/h
59 30-09-2011 11:47:02 14 C 10.74 g/m*3 14 C 0 km/h
60 30-09-2011 11:59:02 14.8 C 11.27 g/m*3 14.8 C 0 km/h
61 30-09-2011 12:11:02 15 C 11.41 g/m*3 15 C 0 km/h
62 30-09-2011 12:23:02 15.5 C 11.63 g/m*3 15.5 C 0 km/h
63 30-09-2011 12:35:02 16.1 C 11.93 g/m*3 16.1 C 0 km/h
64 30-09-2011 12:47:02 16.5 C 11.94 g/m*3 16.5 C 0 km/h
65 30-09-2011 12:59:02 16.9 C 12.08 g/m*3 16.9 C 0 km/h
66 30-09-2011 13:11:02 17.6 C 12 g/m*3 17.6 C 0 km/h
67 30-09-2011 13:23:02 18.1 C 11.9 g/m*3 18.1 C 0 km/h
68 30-09-2011 13:35:02 20.7 C 12.6 g/m*3 20.7 C 0 km/h
69 30-09-2011 13:47:02 20.9 C 10.56 g/m*3 20.9 C 0 km/h
70 30-09-2011 13:59:02 20 C 10.89 g/m*3 20 C 0 km/h
71 30-09-2011 14:11:01 19.9 C 10.31 g/m*3 19.9 C 0 km/h
72 30-09-2011 14:23:02 20.2 C 9.79 g/m*3 20.2 C 0 km/h
73 30-09-2011 14:35:02 20.9 C 9.11 g/m*3 20.9 C 0 km/h
74 30-09-2011 14:47:02 21.9 C 8.68 g/m*3 21.9 C 0 km/h
75 30-09-2011 14:59:02 21.9 C 8.88 g/m*3 21.9 C 0 km/h
Sensor: Nr:Datum:Temp:Abs-Feuchte:Windchill:Wind:
Aussen-T/F 76 30-09-2011 15:11:03 21.5 C 9.43 g/m*3 21.5 C 0 km/h
77 30-09-2011 15:23:02 21.3 C 9.32 g/m*3 21.3 C 0 km/h
78 30-09-2011 15:35:02 21 C 8.98 g/m*3 21 C 0 km/h
79 30-09-2011 15:47:01 21.9 C 8.88 g/m*3 21.9 C 0 km/h
80 30-09-2011 15:59:01 22 C 8.73 g/m*3 22 C 0 km/h
81 30-09-2011 16:11:02 23.1 C 8.27 g/m*3 23.1 C 0 km/h
82 30-09-2011 16:23:01 26.2 C 9.35 g/m*3 26.2 C 0 km/h
83 30-09-2011 16:35:01 29.3 C 7.88 g/m*3 29.3 C 0 km/h
84 30-09-2011 16:47:01 30.1 C 7.93 g/m*3 30.1 C 0 km/h
85 30-09-2011 16:59:01 30.6 C 8.46 g/m*3 30.6 C 0 km/h
86 30-09-2011 17:11:01 30.4 C 8.68 g/m*3 30.4 C 0 km/h
87 30-09-2011 17:23:02 28.5 C 8.38 g/m*3 28.5 C 0 km/h
88 30-09-2011 17:35:01 26.9 C 8.45 g/m*3 26.9 C 0 km/h
89 30-09-2011 17:47:03 25.6 C 8.33 g/m*3 25.6 C 0 km/h
90 30-09-2011 17:59:03 25 C 8.52 g/m*3 25 C 0 km/h
91 30-09-2011 18:11:02 23.8 C 8.6 g/m*3 23.8 C 0 km/h
92 30-09-2011 18:23:02 22.6 C 8.64 g/m*3 22.6 C 0 km/h
93 30-09-2011 18:35:02 21.8 C 8.83 g/m*3 21.8 C 0 km/h
94 30-09-2011 18:47:02 20.7 C 8.82 g/m*3 20.7 C 0 km/h
95 30-09-2011 18:59:02 19.1 C 8.85 g/m*3 19.1 C 0 km/h
96 30-09-2011 19:11:01 18.5 C 9.18 g/m*3 18.5 C 0 km/h
97 30-09-2011 19:23:02 18.6 C 8.75 g/m*3 18.6 C 0 km/h
98 30-09-2011 19:35:02 18.4 C 8.81 g/m*3 18.4 C 0 km/h
99 30-09-2011 19:47:01 18.1 C 8.65 g/m*3 18.1 C 0 km/h
100 30-09-2011 19:59:01 16.9 C 9.06 g/m*3 16.9 C 0 km/h
Sensor: Nr:Datum:Temp:Abs-Feuchte:Windchill:Wind:
Aussen-T/F 101 30-09-2011 20:11:02 15.7 C 8.96 g/m*3 15.7 C 0 km/h
102 30-09-2011 20:23:01 15.1 C 9.16 g/m*3 15.1 C 0 km/h
103 30-09-2011 20:35:01 15.2 C 9.48 g/m*3 15.2 C 0 km/h
104 30-09-2011 20:47:01 15.1 C 9.68 g/m*3 15.1 C 0 km/h
105 30-09-2011 20:59:01 14.7 C 9.44 g/m*3 14.7 C 0 km/h
106 30-09-2011 21:11:02 14.2 C 9.16 g/m*3 14.2 C 0 km/h
107 30-09-2011 21:23:01 13.8 C 9.17 g/m*3 13.8 C 0 km/h
108 30-09-2011 21:35:01 13.6 C 9.18 g/m*3 13.6 C 0 km/h
109 30-09-2011 21:47:01 13.4 C 9.18 g/m*3 13.4 C 0 km/h
110 30-09-2011 21:59:01 13.1 C 9.01 g/m*3 13.1 C 0 km/h
111 30-09-2011 22:12:03 13.1 C 9.24 g/m*3 13.1 C 0 km/h
112 30-09-2011 22:24:03 12.8 C 9.18 g/m*3 12.8 C 0 km/h
113 30-09-2011 22:36:03 12.8 C 9.18 g/m*3 12.8 C 0 km/h
114 30-09-2011 22:48:03 12.5 C 9.02 g/m*3 12.5 C 0 km/h
115 30-09-2011 23:00:03 12.4 C 9.07 g/m*3 12.4 C 0 km/h
116 30-09-2011 23:12:03 12.2 C 8.96 g/m*3 12.2 C 0 km/h
117 30-09-2011 23:24:03 12.1 C 9.01 g/m*3 12.1 C 0 km/h
118 30-09-2011 23:36:03 12.2 C 9.17 g/m*3 12.2 C 0 km/h
119 30-09-2011 23:48:03 11.7 C 8.89 g/m*3 11.7 C 0 km/h

Legende:
   Min
   Max


Maximal/Minimal-Werte vom 30.09.2011 - 30.09.2011

Sensor Min Max Avg
Temp
(Aussen-T/F)
8.3 °C
30-09-2011  06:35:04
30.6 °C
30-09-2011  16:59:01
14.49 °C
Abs-Feuchte
(Aussen-T/F)
7.67 g/m*3
30-09-2011  06:35:04
12.6 g/m*3
30-09-2011  13:35:02
8.86 g/m*3
Windchill
(Aussen-T/F)
8.3 C
30-09-2011  06:35:04
30.6 C
30-09-2011  16:59:01
14.37 C

Die Daten stammen von einer Davis Vantage Pro 2 Wetter-Station und werden unter Linux mit der Software wview2wettercgi und aufbereitet. Alle Angaben erfolgen ohne Gewähr für ihre Vollständigkeit oder Richtigkeit.
Kontakt: Rainer Krienke krienke@uni-koblenz.de . Meine Webseiten an der Uni Koblenz oder privat.
Version: $Revision: 0.78 $